sensor_id;sensor_type;location;lat;lon;timestamp;P1;durP1;ratioP1;P2;durP2;ratioP2
962;SDS011;469;48.770;9.176;2022-12-18T00:00:58;59.25;;;20.23;;
962;SDS011;469;48.770;9.176;2022-12-18T00:03:25;57.35;;;21.52;;
962;SDS011;469;48.770;9.176;2022-12-18T00:05:54;56.15;;;20.92;;
962;SDS011;469;48.770;9.176;2022-12-18T00:08:21;56.20;;;19.80;;
962;SDS011;469;48.770;9.176;2022-12-18T00:10:49;61.42;;;22.42;;
962;SDS011;469;48.770;9.176;2022-12-18T00:13:16;63.05;;;20.58;;
962;SDS011;469;48.770;9.176;2022-12-18T00:15:45;69.35;;;20.40;;
962;SDS011;469;48.770;9.176;2022-12-18T00:18:13;57.70;;;19.67;;
962;SDS011;469;48.770;9.176;2022-12-18T00:20:40;60.35;;;22.65;;
962;SDS011;469;48.770;9.176;2022-12-18T00:23:07;57.33;;;20.30;;
962;SDS011;469;48.770;9.176;2022-12-18T00:25:34;53.28;;;20.50;;
962;SDS011;469;48.770;9.176;2022-12-18T00:28:03;61.90;;;21.23;;
962;SDS011;469;48.770;9.176;2022-12-18T00:30:30;62.60;;;21.58;;
962;SDS011;469;48.770;9.176;2022-12-18T00:32:57;72.68;;;25.33;;
962;SDS011;469;48.770;9.176;2022-12-18T00:35:24;65.18;;;22.13;;
962;SDS011;469;48.770;9.176;2022-12-18T00:38:08;58.00;;;20.70;;
962;SDS011;469;48.770;9.176;2022-12-18T00:40:35;56.50;;;20.40;;
962;SDS011;469;48.770;9.176;2022-12-18T00:43:03;60.60;;;20.77;;
962;SDS011;469;48.770;9.176;2022-12-18T00:47:57;48.38;;;19.00;;
962;SDS011;469;48.770;9.176;2022-12-18T00:50:24;65.82;;;22.45;;
962;SDS011;469;48.770;9.176;2022-12-18T00:52:51;70.72;;;20.30;;
962;SDS011;469;48.770;9.176;2022-12-18T00:55:18;64.35;;;21.25;;
962;SDS011;469;48.770;9.176;2022-12-18T00:57:45;61.70;;;21.45;;
962;SDS011;469;48.770;9.176;2022-12-18T01:00:14;62.95;;;21.23;;
962;SDS011;469;48.770;9.176;2022-12-18T01:02:41;63.30;;;22.33;;
962;SDS011;469;48.770;9.176;2022-12-18T01:05:08;56.15;;;19.10;;
962;SDS011;469;48.770;9.176;2022-12-18T01:07:37;65.90;;;22.17;;
962;SDS011;469;48.770;9.176;2022-12-18T01:10:04;63.65;;;20.27;;
962;SDS011;469;48.770;9.176;2022-12-18T01:12:32;53.35;;;20.75;;
962;SDS011;469;48.770;9.176;2022-12-18T01:14:59;59.45;;;20.35;;
962;SDS011;469;48.770;9.176;2022-12-18T01:17:27;62.20;;;21.60;;
962;SDS011;469;48.770;9.176;2022-12-18T01:19:54;49.95;;;19.40;;
962;SDS011;469;48.770;9.176;2022-12-18T01:22:21;53.60;;;19.63;;
962;SDS011;469;48.770;9.176;2022-12-18T01:24:47;53.38;;;20.50;;
962;SDS011;469;48.770;9.176;2022-12-18T01:27:14;53.30;;;20.38;;
962;SDS011;469;48.770;9.176;2022-12-18T01:29:41;70.35;;;25.13;;
962;SDS011;469;48.770;9.176;2022-12-18T01:32:08;73.97;;;26.42;;
962;SDS011;469;48.770;9.176;2022-12-18T01:34:36;61.42;;;19.85;;
962;SDS011;469;48.770;9.176;2022-12-18T01:37:03;57.92;;;20.08;;
962;SDS011;469;48.770;9.176;2022-12-18T01:39:31;51.80;;;18.02;;
962;SDS011;469;48.770;9.176;2022-12-18T01:41:58;56.25;;;19.63;;
962;SDS011;469;48.770;9.176;2022-12-18T01:47:26;53.88;;;19.77;;
962;SDS011;469;48.770;9.176;2022-12-18T01:49:59;55.38;;;19.25;;
962;SDS011;469;48.770;9.176;2022-12-18T01:52:30;66.32;;;18.98;;
962;SDS011;469;48.770;9.176;2022-12-18T01:54:58;55.30;;;20.50;;
962;SDS011;469;48.770;9.176;2022-12-18T01:57:26;58.03;;;20.30;;
962;SDS011;469;48.770;9.176;2022-12-18T01:59:55;57.33;;;20.23;;
962;SDS011;469;48.770;9.176;2022-12-18T02:02:26;50.92;;;18.45;;
962;SDS011;469;48.770;9.176;2022-12-18T02:04:54;59.20;;;19.63;;
962;SDS011;469;48.770;9.176;2022-12-18T02:07:24;52.85;;;19.83;;
962;SDS011;469;48.770;9.176;2022-12-18T02:09:58;60.40;;;20.35;;
962;SDS011;469;48.770;9.176;2022-12-18T02:12:30;53.25;;;19.23;;
962;SDS011;469;48.770;9.176;2022-12-18T02:15:05;55.78;;;20.35;;
962;SDS011;469;48.770;9.176;2022-12-18T02:17:39;57.15;;;20.52;;
962;SDS011;469;48.770;9.176;2022-12-18T02:20:12;53.45;;;19.95;;
962;SDS011;469;48.770;9.176;2022-12-18T02:22:49;52.03;;;17.75;;
962;SDS011;469;48.770;9.176;2022-12-18T02:25:39;50.00;;;18.63;;
962;SDS011;469;48.770;9.176;2022-12-18T02:28:37;52.45;;;18.50;;
962;SDS011;469;48.770;9.176;2022-12-18T02:31:09;50.78;;;18.65;;
962;SDS011;469;48.770;9.176;2022-12-18T02:33:40;53.45;;;19.73;;
962;SDS011;469;48.770;9.176;2022-12-18T02:36:10;55.65;;;20.35;;
962;SDS011;469;48.770;9.176;2022-12-18T02:38:39;54.03;;;18.70;;
962;SDS011;469;48.770;9.176;2022-12-18T02:41:07;49.10;;;18.90;;
962;SDS011;469;48.770;9.176;2022-12-18T02:43:34;56.72;;;19.27;;
962;SDS011;469;48.770;9.176;2022-12-18T02:49:01;51.53;;;16.55;;
962;SDS011;469;48.770;9.176;2022-12-18T02:51:33;54.80;;;18.30;;
962;SDS011;469;48.770;9.176;2022-12-18T02:54:08;58.40;;;20.05;;
962;SDS011;469;48.770;9.176;2022-12-18T02:56:42;57.05;;;18.05;;
962;SDS011;469;48.770;9.176;2022-12-18T02:59:15;52.13;;;19.73;;
962;SDS011;469;48.770;9.176;2022-12-18T03:01:49;57.00;;;18.60;;
962;SDS011;469;48.770;9.176;2022-12-18T03:04:19;48.67;;;16.77;;
962;SDS011;469;48.770;9.176;2022-12-18T03:06:57;47.67;;;16.77;;
962;SDS011;469;48.770;9.176;2022-12-18T03:09:27;58.20;;;17.63;;
962;SDS011;469;48.770;9.176;2022-12-18T03:12:00;47.83;;;18.27;;
962;SDS011;469;48.770;9.176;2022-12-18T03:14:50;49.47;;;16.95;;
962;SDS011;469;48.770;9.176;2022-12-18T03:17:25;47.42;;;17.45;;
962;SDS011;469;48.770;9.176;2022-12-18T03:19:54;50.40;;;16.00;;
962;SDS011;469;48.770;9.176;2022-12-18T03:22:24;55.92;;;18.00;;
962;SDS011;469;48.770;9.176;2022-12-18T03:24:56;41.88;;;15.32;;
962;SDS011;469;48.770;9.176;2022-12-18T03:27:25;48.80;;;15.95;;
962;SDS011;469;48.770;9.176;2022-12-18T03:29:55;51.03;;;18.20;;
962;SDS011;469;48.770;9.176;2022-12-18T03:32:33;53.38;;;16.65;;
962;SDS011;469;48.770;9.176;2022-12-18T03:35:07;44.92;;;16.67;;
962;SDS011;469;48.770;9.176;2022-12-18T03:37:36;52.38;;;18.25;;
962;SDS011;469;48.770;9.176;2022-12-18T03:40:04;47.83;;;15.88;;
962;SDS011;469;48.770;9.176;2022-12-18T03:42:32;43.17;;;16.20;;
962;SDS011;469;48.770;9.176;2022-12-18T03:45:06;48.97;;;15.88;;
962;SDS011;469;48.770;9.176;2022-12-18T03:47:38;45.15;;;15.70;;
962;SDS011;469;48.770;9.176;2022-12-18T03:50:11;46.70;;;17.27;;
962;SDS011;469;48.770;9.176;2022-12-18T03:52:44;45.30;;;14.38;;
962;SDS011;469;48.770;9.176;2022-12-18T03:55:15;42.60;;;14.77;;
962;SDS011;469;48.770;9.176;2022-12-18T03:57:45;45.47;;;15.13;;
962;SDS011;469;48.770;9.176;2022-12-18T04:00:14;42.55;;;15.45;;
962;SDS011;469;48.770;9.176;2022-12-18T04:02:45;47.25;;;16.65;;
962;SDS011;469;48.770;9.176;2022-12-18T04:05:17;42.25;;;15.77;;
962;SDS011;469;48.770;9.176;2022-12-18T04:07:45;44.53;;;15.23;;
962;SDS011;469;48.770;9.176;2022-12-18T04:10:15;38.50;;;14.48;;
962;SDS011;469;48.770;9.176;2022-12-18T04:12:42;46.83;;;15.13;;
962;SDS011;469;48.770;9.176;2022-12-18T04:15:09;43.78;;;14.35;;
962;SDS011;469;48.770;9.176;2022-12-18T04:17:37;39.70;;;14.68;;
962;SDS011;469;48.770;9.176;2022-12-18T04:20:07;46.53;;;16.50;;
962;SDS011;469;48.770;9.176;2022-12-18T04:22:34;48.95;;;15.60;;
962;SDS011;469;48.770;9.176;2022-12-18T04:25:01;44.33;;;15.18;;
962;SDS011;469;48.770;9.176;2022-12-18T04:27:28;41.28;;;15.35;;
962;SDS011;469;48.770;9.176;2022-12-18T04:29:55;45.17;;;15.20;;
962;SDS011;469;48.770;9.176;2022-12-18T04:32:22;44.00;;;15.63;;
962;SDS011;469;48.770;9.176;2022-12-18T04:34:48;37.10;;;15.38;;
962;SDS011;469;48.770;9.176;2022-12-18T04:37:16;39.35;;;15.85;;
962;SDS011;469;48.770;9.176;2022-12-18T04:39:43;48.05;;;15.80;;
962;SDS011;469;48.770;9.176;2022-12-18T04:42:10;42.05;;;15.57;;
962;SDS011;469;48.770;9.176;2022-12-18T04:44:37;46.28;;;15.07;;
962;SDS011;469;48.770;9.176;2022-12-18T04:47:03;52.58;;;17.30;;
962;SDS011;469;48.770;9.176;2022-12-18T04:49:30;42.13;;;14.98;;
962;SDS011;469;48.770;9.176;2022-12-18T04:51:57;41.40;;;14.57;;
962;SDS011;469;48.770;9.176;2022-12-18T04:54:25;42.60;;;15.63;;
962;SDS011;469;48.770;9.176;2022-12-18T04:56:52;38.58;;;15.77;;
962;SDS011;469;48.770;9.176;2022-12-18T04:59:18;36.28;;;14.60;;
962;SDS011;469;48.770;9.176;2022-12-18T05:01:45;42.10;;;15.75;;
962;SDS011;469;48.770;9.176;2022-12-18T05:04:12;35.35;;;13.63;;
962;SDS011;469;48.770;9.176;2022-12-18T05:06:39;40.80;;;14.85;;
962;SDS011;469;48.770;9.176;2022-12-18T05:09:05;44.67;;;16.00;;
962;SDS011;469;48.770;9.176;2022-12-18T05:11:33;40.92;;;14.90;;
962;SDS011;469;48.770;9.176;2022-12-18T05:14:00;41.08;;;15.48;;
962;SDS011;469;48.770;9.176;2022-12-18T05:16:27;37.95;;;14.95;;
962;SDS011;469;48.770;9.176;2022-12-18T05:18:53;40.30;;;14.18;;
962;SDS011;469;48.770;9.176;2022-12-18T05:21:20;34.38;;;13.55;;
962;SDS011;469;48.770;9.176;2022-12-18T05:23:47;39.90;;;13.30;;
962;SDS011;469;48.770;9.176;2022-12-18T05:26:15;43.17;;;15.20;;
962;SDS011;469;48.770;9.176;2022-12-18T05:28:44;33.03;;;13.57;;
962;SDS011;469;48.770;9.176;2022-12-18T05:31:11;43.35;;;15.10;;
962;SDS011;469;48.770;9.176;2022-12-18T05:33:39;42.08;;;12.90;;
962;SDS011;469;48.770;9.176;2022-12-18T05:36:06;44.30;;;13.65;;
962;SDS011;469;48.770;9.176;2022-12-18T05:38:36;35.63;;;13.60;;
962;SDS011;469;48.770;9.176;2022-12-18T05:41:04;36.10;;;13.90;;
962;SDS011;469;48.770;9.176;2022-12-18T05:43:33;35.92;;;14.35;;
962;SDS011;469;48.770;9.176;2022-12-18T05:46:04;40.85;;;14.43;;
962;SDS011;469;48.770;9.176;2022-12-18T05:48:32;38.25;;;13.25;;
962;SDS011;469;48.770;9.176;2022-12-18T05:51:05;41.38;;;13.20;;
962;SDS011;469;48.770;9.176;2022-12-18T05:53:34;37.63;;;14.57;;
962;SDS011;469;48.770;9.176;2022-12-18T05:56:01;38.90;;;15.15;;
962;SDS011;469;48.770;9.176;2022-12-18T05:58:29;37.47;;;14.63;;
962;SDS011;469;48.770;9.176;2022-12-18T06:00:57;38.78;;;14.23;;
962;SDS011;469;48.770;9.176;2022-12-18T06:03:33;41.75;;;15.25;;
962;SDS011;469;48.770;9.176;2022-12-18T06:06:00;38.33;;;14.50;;
962;SDS011;469;48.770;9.176;2022-12-18T06:08:26;37.05;;;13.25;;
962;SDS011;469;48.770;9.176;2022-12-18T06:10:53;42.17;;;15.57;;
962;SDS011;469;48.770;9.176;2022-12-18T06:13:20;50.15;;;15.88;;
962;SDS011;469;48.770;9.176;2022-12-18T06:15:47;47.45;;;15.68;;
962;SDS011;469;48.770;9.176;2022-12-18T06:18:14;41.38;;;14.68;;
962;SDS011;469;48.770;9.176;2022-12-18T06:20:44;38.72;;;13.63;;
962;SDS011;469;48.770;9.176;2022-12-18T06:23:10;39.53;;;14.10;;
962;SDS011;469;48.770;9.176;2022-12-18T06:25:38;37.35;;;13.18;;
962;SDS011;469;48.770;9.176;2022-12-18T06:28:05;31.83;;;12.57;;
962;SDS011;469;48.770;9.176;2022-12-18T06:30:32;38.42;;;12.23;;
962;SDS011;469;48.770;9.176;2022-12-18T06:32:58;36.47;;;12.20;;
962;SDS011;469;48.770;9.176;2022-12-18T06:35:25;43.55;;;14.18;;
962;SDS011;469;48.770;9.176;2022-12-18T06:37:56;39.70;;;13.70;;
962;SDS011;469;48.770;9.176;2022-12-18T06:40:22;39.22;;;13.65;;
962;SDS011;469;48.770;9.176;2022-12-18T06:42:49;36.30;;;13.48;;
962;SDS011;469;48.770;9.176;2022-12-18T06:45:16;37.25;;;12.88;;
962;SDS011;469;48.770;9.176;2022-12-18T07:57:28;40.80;;;12.85;;
962;SDS011;469;48.770;9.176;2022-12-18T07:59:55;39.97;;;13.68;;
962;SDS011;469;48.770;9.176;2022-12-18T08:02:21;40.60;;;13.88;;
962;SDS011;469;48.770;9.176;2022-12-18T08:04:48;34.15;;;13.25;;
962;SDS011;469;48.770;9.176;2022-12-18T08:07:15;37.65;;;13.00;;
962;SDS011;469;48.770;9.176;2022-12-18T08:09:42;38.22;;;13.75;;
962;SDS011;469;48.770;9.176;2022-12-18T08:12:09;44.50;;;14.00;;
962;SDS011;469;48.770;9.176;2022-12-18T08:14:37;41.85;;;13.27;;
962;SDS011;469;48.770;9.176;2022-12-18T08:17:04;41.13;;;13.30;;
962;SDS011;469;48.770;9.176;2022-12-18T08:19:30;47.97;;;14.10;;
962;SDS011;469;48.770;9.176;2022-12-18T08:21:57;41.38;;;13.55;;
962;SDS011;469;48.770;9.176;2022-12-18T08:24:24;44.58;;;13.90;;
962;SDS011;469;48.770;9.176;2022-12-18T08:26:51;39.90;;;13.63;;
962;SDS011;469;48.770;9.176;2022-12-18T08:29:17;39.05;;;13.68;;
962;SDS011;469;48.770;9.176;2022-12-18T08:31:46;39.45;;;13.52;;
962;SDS011;469;48.770;9.176;2022-12-18T08:34:15;38.65;;;13.95;;
962;SDS011;469;48.770;9.176;2022-12-18T08:36:42;40.40;;;13.63;;
962;SDS011;469;48.770;9.176;2022-12-18T08:39:09;41.03;;;12.40;;
962;SDS011;469;48.770;9.176;2022-12-18T08:41:36;42.38;;;13.93;;
962;SDS011;469;48.770;9.176;2022-12-18T08:44:02;45.03;;;14.73;;
962;SDS011;469;48.770;9.176;2022-12-18T08:46:48;38.67;;;14.00;;
962;SDS011;469;48.770;9.176;2022-12-18T08:49:15;38.72;;;12.80;;
962;SDS011;469;48.770;9.176;2022-12-18T08:51:42;47.65;;;16.52;;
962;SDS011;469;48.770;9.176;2022-12-18T08:54:09;40.47;;;14.20;;
962;SDS011;469;48.770;9.176;2022-12-18T08:56:37;41.05;;;14.27;;
962;SDS011;469;48.770;9.176;2022-12-18T08:59:04;36.55;;;13.82;;
962;SDS011;469;48.770;9.176;2022-12-18T09:01:31;41.88;;;14.13;;
962;SDS011;469;48.770;9.176;2022-12-18T09:03:59;38.63;;;14.95;;
962;SDS011;469;48.770;9.176;2022-12-18T09:06:26;40.58;;;16.15;;
962;SDS011;469;48.770;9.176;2022-12-18T09:08:52;39.63;;;15.55;;
962;SDS011;469;48.770;9.176;2022-12-18T09:11:20;52.63;;;16.38;;
962;SDS011;469;48.770;9.176;2022-12-18T09:13:48;52.33;;;15.95;;
962;SDS011;469;48.770;9.176;2022-12-18T09:16:15;40.88;;;14.82;;
962;SDS011;469;48.770;9.176;2022-12-18T09:18:43;44.75;;;16.83;;
962;SDS011;469;48.770;9.176;2022-12-18T09:21:12;41.08;;;15.80;;
962;SDS011;469;48.770;9.176;2022-12-18T09:23:42;40.45;;;15.27;;
962;SDS011;469;48.770;9.176;2022-12-18T09:26:09;47.92;;;16.88;;
962;SDS011;469;48.770;9.176;2022-12-18T09:28:36;42.20;;;16.60;;
962;SDS011;469;48.770;9.176;2022-12-18T09:31:03;45.33;;;16.17;;
962;SDS011;469;48.770;9.176;2022-12-18T09:33:32;48.00;;;16.08;;
962;SDS011;469;48.770;9.176;2022-12-18T09:36:00;44.88;;;15.65;;
962;SDS011;469;48.770;9.176;2022-12-18T09:38:29;50.45;;;14.98;;
962;SDS011;469;48.770;9.176;2022-12-18T09:40:59;38.10;;;16.25;;
962;SDS011;469;48.770;9.176;2022-12-18T09:43:33;44.67;;;16.35;;
962;SDS011;469;48.770;9.176;2022-12-18T09:46:06;41.55;;;16.02;;
962;SDS011;469;48.770;9.176;2022-12-18T09:48:38;37.30;;;15.32;;
962;SDS011;469;48.770;9.176;2022-12-18T09:51:09;44.50;;;15.85;;
962;SDS011;469;48.770;9.176;2022-12-18T09:53:43;48.65;;;15.75;;
962;SDS011;469;48.770;9.176;2022-12-18T09:56:15;40.05;;;15.18;;
962;SDS011;469;48.770;9.176;2022-12-18T09:58:45;46.88;;;18.33;;
962;SDS011;469;48.770;9.176;2022-12-18T10:01:18;43.50;;;15.95;;
962;SDS011;469;48.770;9.176;2022-12-18T10:03:48;39.67;;;15.48;;
962;SDS011;469;48.770;9.176;2022-12-18T10:06:15;44.05;;;16.95;;
962;SDS011;469;48.770;9.176;2022-12-18T10:08:51;42.05;;;15.23;;
962;SDS011;469;48.770;9.176;2022-12-18T10:11:31;45.55;;;16.15;;
962;SDS011;469;48.770;9.176;2022-12-18T10:14:07;38.40;;;15.45;;
962;SDS011;469;48.770;9.176;2022-12-18T10:16:43;55.53;;;17.40;;
962;SDS011;469;48.770;9.176;2022-12-18T10:19:30;43.72;;;16.30;;
962;SDS011;469;48.770;9.176;2022-12-18T10:22:16;48.95;;;16.55;;
962;SDS011;469;48.770;9.176;2022-12-18T10:24:54;56.22;;;17.30;;
962;SDS011;469;48.770;9.176;2022-12-18T10:27:26;44.67;;;15.40;;
962;SDS011;469;48.770;9.176;2022-12-18T10:29:54;42.17;;;16.42;;
962;SDS011;469;48.770;9.176;2022-12-18T10:32:22;41.15;;;15.52;;
962;SDS011;469;48.770;9.176;2022-12-18T10:34:51;36.25;;;13.82;;
962;SDS011;469;48.770;9.176;2022-12-18T10:37:20;51.65;;;16.20;;
962;SDS011;469;48.770;9.176;2022-12-18T10:40:04;45.60;;;15.05;;
962;SDS011;469;48.770;9.176;2022-12-18T10:42:35;46.20;;;15.80;;
962;SDS011;469;48.770;9.176;2022-12-18T10:45:03;41.13;;;14.82;;
962;SDS011;469;48.770;9.176;2022-12-18T10:47:35;38.85;;;14.30;;
962;SDS011;469;48.770;9.176;2022-12-18T10:50:02;41.80;;;17.05;;
962;SDS011;469;48.770;9.176;2022-12-18T10:52:30;41.70;;;15.55;;
962;SDS011;469;48.770;9.176;2022-12-18T10:54:57;38.67;;;14.98;;
962;SDS011;469;48.770;9.176;2022-12-18T10:57:30;39.30;;;14.82;;
962;SDS011;469;48.770;9.176;2022-12-18T11:00:03;41.38;;;16.08;;
962;SDS011;469;48.770;9.176;2022-12-18T11:02:47;40.58;;;13.80;;
962;SDS011;469;48.770;9.176;2022-12-18T11:05:25;38.10;;;14.63;;
962;SDS011;469;48.770;9.176;2022-12-18T11:07:53;37.50;;;13.60;;
962;SDS011;469;48.770;9.176;2022-12-18T11:10:25;43.97;;;16.48;;
962;SDS011;469;48.770;9.176;2022-12-18T11:12:57;45.10;;;16.35;;
962;SDS011;469;48.770;9.176;2022-12-18T11:15:41;39.05;;;14.23;;
962;SDS011;469;48.770;9.176;2022-12-18T11:18:15;40.15;;;14.82;;
962;SDS011;469;48.770;9.176;2022-12-18T11:20:49;44.10;;;15.50;;
962;SDS011;469;48.770;9.176;2022-12-18T11:23:18;42.08;;;14.38;;
962;SDS011;469;48.770;9.176;2022-12-18T11:25:51;40.42;;;15.25;;
962;SDS011;469;48.770;9.176;2022-12-18T11:28:29;43.22;;;14.80;;
962;SDS011;469;48.770;9.176;2022-12-18T11:31:21;37.92;;;13.18;;
962;SDS011;469;48.770;9.176;2022-12-18T11:33:52;41.67;;;14.85;;
962;SDS011;469;48.770;9.176;2022-12-18T11:36:25;44.67;;;15.38;;
962;SDS011;469;48.770;9.176;2022-12-18T11:39:05;43.03;;;15.50;;
962;SDS011;469;48.770;9.176;2022-12-18T11:41:39;41.78;;;14.48;;
962;SDS011;469;48.770;9.176;2022-12-18T11:44:35;43.08;;;13.90;;
962;SDS011;469;48.770;9.176;2022-12-18T11:47:08;43.92;;;14.18;;
962;SDS011;469;48.770;9.176;2022-12-18T11:49:39;42.72;;;14.88;;
962;SDS011;469;48.770;9.176;2022-12-18T11:52:14;38.83;;;13.98;;
962;SDS011;469;48.770;9.176;2022-12-18T11:54:44;47.45;;;15.10;;
962;SDS011;469;48.770;9.176;2022-12-18T11:57:13;41.13;;;14.80;;
962;SDS011;469;48.770;9.176;2022-12-18T11:59:53;41.28;;;14.32;;
962;SDS011;469;48.770;9.176;2022-12-18T12:02:30;50.35;;;15.07;;
962;SDS011;469;48.770;9.176;2022-12-18T12:05:17;40.88;;;14.02;;
962;SDS011;469;48.770;9.176;2022-12-18T12:07:57;41.17;;;14.50;;
962;SDS011;469;48.770;9.176;2022-12-18T12:10:34;41.50;;;13.88;;
962;SDS011;469;48.770;9.176;2022-12-18T12:13:19;40.38;;;13.90;;
962;SDS011;469;48.770;9.176;2022-12-18T12:15:59;44.22;;;15.27;;
962;SDS011;469;48.770;9.176;2022-12-18T12:18:34;41.25;;;14.32;;
962;SDS011;469;48.770;9.176;2022-12-18T12:21:11;44.60;;;15.38;;
962;SDS011;469;48.770;9.176;2022-12-18T12:23:45;47.85;;;15.52;;
962;SDS011;469;48.770;9.176;2022-12-18T12:26:20;46.55;;;14.50;;
962;SDS011;469;48.770;9.176;2022-12-18T12:29:05;40.63;;;13.48;;
962;SDS011;469;48.770;9.176;2022-12-18T12:31:50;36.80;;;13.63;;
962;SDS011;469;48.770;9.176;2022-12-18T12:34:31;41.03;;;14.50;;
962;SDS011;469;48.770;9.176;2022-12-18T12:37:09;38.30;;;14.68;;
962;SDS011;469;48.770;9.176;2022-12-18T12:39:46;44.70;;;14.25;;
962;SDS011;469;48.770;9.176;2022-12-18T12:42:15;46.50;;;15.32;;
962;SDS011;469;48.770;9.176;2022-12-18T12:45:03;39.83;;;15.30;;
962;SDS011;469;48.770;9.176;2022-12-18T12:47:35;43.05;;;15.18;;
962;SDS011;469;48.770;9.176;2022-12-18T12:50:12;44.20;;;15.63;;
962;SDS011;469;48.770;9.176;2022-12-18T12:52:42;40.17;;;14.25;;
962;SDS011;469;48.770;9.176;2022-12-18T12:55:13;42.28;;;15.18;;
962;SDS011;469;48.770;9.176;2022-12-18T12:57:45;45.35;;;14.10;;
962;SDS011;469;48.770;9.176;2022-12-18T13:00:18;44.20;;;14.07;;
962;SDS011;469;48.770;9.176;2022-12-18T13:02:51;52.85;;;18.50;;
962;SDS011;469;48.770;9.176;2022-12-18T13:05:23;37.88;;;13.80;;
962;SDS011;469;48.770;9.176;2022-12-18T13:07:55;42.45;;;14.65;;
962;SDS011;469;48.770;9.176;2022-12-18T13:10:32;52.08;;;15.40;;
962;SDS011;469;48.770;9.176;2022-12-18T13:13:00;45.08;;;15.35;;
962;SDS011;469;48.770;9.176;2022-12-18T13:15:30;60.22;;;15.73;;
962;SDS011;469;48.770;9.176;2022-12-18T13:18:11;50.90;;;13.90;;
962;SDS011;469;48.770;9.176;2022-12-18T13:20:42;46.85;;;15.00;;
962;SDS011;469;48.770;9.176;2022-12-18T13:23:23;36.13;;;14.27;;
962;SDS011;469;48.770;9.176;2022-12-18T13:25:57;42.53;;;14.32;;
962;SDS011;469;48.770;9.176;2022-12-18T13:31:57;53.20;;;16.45;;
962;SDS011;469;48.770;9.176;2022-12-18T13:34:26;42.65;;;16.67;;
962;SDS011;469;48.770;9.176;2022-12-18T13:36:55;44.53;;;15.90;;
962;SDS011;469;48.770;9.176;2022-12-18T13:39:42;45.08;;;14.90;;
962;SDS011;469;48.770;9.176;2022-12-18T13:45:35;46.97;;;15.40;;
962;SDS011;469;48.770;9.176;2022-12-18T13:48:17;50.38;;;14.90;;
962;SDS011;469;48.770;9.176;2022-12-18T13:50:53;54.40;;;16.70;;
962;SDS011;469;48.770;9.176;2022-12-18T13:53:26;56.05;;;17.92;;
962;SDS011;469;48.770;9.176;2022-12-18T13:56:03;60.45;;;16.45;;
962;SDS011;469;48.770;9.176;2022-12-18T13:58:36;48.15;;;16.40;;
962;SDS011;469;48.770;9.176;2022-12-18T14:01:03;49.75;;;15.95;;
962;SDS011;469;48.770;9.176;2022-12-18T14:03:30;43.35;;;15.35;;
962;SDS011;469;48.770;9.176;2022-12-18T14:06:02;46.15;;;16.83;;
962;SDS011;469;48.770;9.176;2022-12-18T14:08:33;48.75;;;16.98;;
962;SDS011;469;48.770;9.176;2022-12-18T14:11:04;53.70;;;17.73;;
962;SDS011;469;48.770;9.176;2022-12-18T14:13:35;42.65;;;17.30;;
962;SDS011;469;48.770;9.176;2022-12-18T14:16:04;48.90;;;18.80;;
962;SDS011;469;48.770;9.176;2022-12-18T14:18:36;46.95;;;16.80;;
962;SDS011;469;48.770;9.176;2022-12-18T14:21:14;46.53;;;16.90;;
962;SDS011;469;48.770;9.176;2022-12-18T14:23:46;57.50;;;20.13;;
962;SDS011;469;48.770;9.176;2022-12-18T14:26:20;52.47;;;18.48;;
962;SDS011;469;48.770;9.176;2022-12-18T14:28:49;51.83;;;15.98;;
962;SDS011;469;48.770;9.176;2022-12-18T14:31:19;44.13;;;16.15;;
962;SDS011;469;48.770;9.176;2022-12-18T14:33:47;49.75;;;17.40;;
962;SDS011;469;48.770;9.176;2022-12-18T14:36:17;51.83;;;17.60;;
962;SDS011;469;48.770;9.176;2022-12-18T14:38:48;59.35;;;16.67;;
962;SDS011;469;48.770;9.176;2022-12-18T14:41:16;63.25;;;17.70;;
962;SDS011;469;48.770;9.176;2022-12-18T14:43:47;42.08;;;16.85;;
962;SDS011;469;48.770;9.176;2022-12-18T14:46:27;51.22;;;16.73;;
962;SDS011;469;48.770;9.176;2022-12-18T14:48:57;42.60;;;16.65;;
962;SDS011;469;48.770;9.176;2022-12-18T14:51:28;50.83;;;17.65;;
962;SDS011;469;48.770;9.176;2022-12-18T14:53:56;48.78;;;17.73;;
962;SDS011;469;48.770;9.176;2022-12-18T14:56:25;51.97;;;17.77;;
962;SDS011;469;48.770;9.176;2022-12-18T14:58:56;59.00;;;17.67;;
962;SDS011;469;48.770;9.176;2022-12-18T15:01:28;59.83;;;17.80;;
962;SDS011;469;48.770;9.176;2022-12-18T15:03:57;44.03;;;17.63;;
962;SDS011;469;48.770;9.176;2022-12-18T15:06:31;44.67;;;16.95;;
962;SDS011;469;48.770;9.176;2022-12-18T15:09:00;48.30;;;16.42;;
962;SDS011;469;48.770;9.176;2022-12-18T15:11:34;61.88;;;18.95;;
962;SDS011;469;48.770;9.176;2022-12-18T15:17:14;54.10;;;16.73;;
962;SDS011;469;48.770;9.176;2022-12-18T15:19:43;51.00;;;17.98;;
962;SDS011;469;48.770;9.176;2022-12-18T15:22:20;55.90;;;18.20;;
962;SDS011;469;48.770;9.176;2022-12-18T15:25:03;46.70;;;17.33;;
962;SDS011;469;48.770;9.176;2022-12-18T15:27:56;48.33;;;17.85;;
962;SDS011;469;48.770;9.176;2022-12-18T15:30:27;51.47;;;17.48;;
962;SDS011;469;48.770;9.176;2022-12-18T15:35:55;46.08;;;16.83;;
962;SDS011;469;48.770;9.176;2022-12-18T15:38:25;53.25;;;17.05;;
962;SDS011;469;48.770;9.176;2022-12-18T15:40:53;56.53;;;18.42;;
962;SDS011;469;48.770;9.176;2022-12-18T15:43:26;48.13;;;17.10;;
962;SDS011;469;48.770;9.176;2022-12-18T15:46:02;57.80;;;19.27;;
962;SDS011;469;48.770;9.176;2022-12-18T15:51:17;54.20;;;16.13;;
962;SDS011;469;48.770;9.176;2022-12-18T15:54:04;53.03;;;16.90;;
962;SDS011;469;48.770;9.176;2022-12-18T15:56:36;48.60;;;16.38;;
962;SDS011;469;48.770;9.176;2022-12-18T15:59:20;54.40;;;16.98;;
962;SDS011;469;48.770;9.176;2022-12-18T16:01:49;50.67;;;17.65;;
962;SDS011;469;48.770;9.176;2022-12-18T16:04:19;49.40;;;17.60;;
962;SDS011;469;48.770;9.176;2022-12-18T16:06:47;51.20;;;17.77;;
962;SDS011;469;48.770;9.176;2022-12-18T16:09:16;47.60;;;17.05;;
962;SDS011;469;48.770;9.176;2022-12-18T16:11:43;54.20;;;19.20;;
962;SDS011;469;48.770;9.176;2022-12-18T16:14:15;49.85;;;18.20;;
962;SDS011;469;48.770;9.176;2022-12-18T16:16:47;49.78;;;17.30;;
962;SDS011;469;48.770;9.176;2022-12-18T16:19:26;61.72;;;19.42;;
962;SDS011;469;48.770;9.176;2022-12-18T16:22:05;50.30;;;17.15;;
962;SDS011;469;48.770;9.176;2022-12-18T16:24:43;47.10;;;16.75;;
962;SDS011;469;48.770;9.176;2022-12-18T16:27:10;55.60;;;18.30;;
962;SDS011;469;48.770;9.176;2022-12-18T16:29:37;53.05;;;18.23;;
962;SDS011;469;48.770;9.176;2022-12-18T16:32:04;52.97;;;17.85;;
962;SDS011;469;48.770;9.176;2022-12-18T16:34:33;52.42;;;17.83;;
962;SDS011;469;48.770;9.176;2022-12-18T16:37:02;47.50;;;18.02;;
962;SDS011;469;48.770;9.176;2022-12-18T16:39:30;53.42;;;18.35;;
962;SDS011;469;48.770;9.176;2022-12-18T16:42:10;53.83;;;18.65;;
962;SDS011;469;48.770;9.176;2022-12-18T16:44:55;51.05;;;18.02;;
962;SDS011;469;48.770;9.176;2022-12-18T16:47:22;52.83;;;17.73;;
962;SDS011;469;48.770;9.176;2022-12-18T16:49:49;58.88;;;20.10;;
962;SDS011;469;48.770;9.176;2022-12-18T16:52:17;43.55;;;17.15;;
962;SDS011;469;48.770;9.176;2022-12-18T16:54:44;46.95;;;16.95;;
962;SDS011;469;48.770;9.176;2022-12-18T17:00:32;53.67;;;17.90;;
962;SDS011;469;48.770;9.176;2022-12-18T17:03:20;50.58;;;18.90;;
962;SDS011;469;48.770;9.176;2022-12-18T17:05:47;52.60;;;18.13;;
962;SDS011;469;48.770;9.176;2022-12-18T17:08:14;53.03;;;16.98;;
962;SDS011;469;48.770;9.176;2022-12-18T17:10:46;51.13;;;17.88;;
962;SDS011;469;48.770;9.176;2022-12-18T17:13:16;49.55;;;18.15;;
962;SDS011;469;48.770;9.176;2022-12-18T17:15:49;51.63;;;19.25;;